ePrivacy and GPDR Cookie Consent by Cookie Consent
EmailTwitter


Observations de surface / France / LFMK (07635)

Régions: Québec | Canada | États-Unis | Europe | France | UK | Ailleurs
Station
Affichage
Infos & localisation pour LFMK (07635) | Aide pour décoder les METARs

Observations prises le 2022-09-26 à 17H00 UTC à CARCASSONNE/SALV, FR (LFMK)

Température: 20.0 Celsius

Point de rosée: 7.0 Celsius

Humidité relative: 43%

Vents: Ouest-nord-ouest à 31 km/h ou 17 noeuds.

Pression au niveau moyen de la mer: 101.20 kilopascals.

Observation METAR:

LFMK 261700Z AUTO 29017KT CAVOK 20/07 Q1012 BECMG 27015G27KT=